NCAR-RAP Real-Time Weather Data

Output produced by METARs form (08 May 2021  01:24 UTC)
found at http://weather.rap.ucar.edu/surface/
 
KFAT 080053Z 31013KT 10SM FEW080 27/M01 A2991 RMK AO2 SLP127 CU OMTNS DSNT E T02671011
KFAT 072353Z 32012G23KT 10SM FEW080 27/03 A2992 RMK AO2 SLP129 CU OMTNS DSNT E-SE T02720028 10278 20211 58018
KFAT 072253Z 34012G19KT 10SM FEW080 27/M01 A2994 RMK AO2 SLP134 CU OMTNS DSNT N-E-SE T02721011
KFAT 072153Z 28008KT 10SM FEW070 27/M02 A2996 RMK AO2 SLP141 CU OMTNS DSNT N-E-S T02721017
KFAT 072053Z 28009KT 10SM FEW070 26/M01 A2997 RMK AO2 SLP146 CU OMTNS DSNT N-E-S T02561011 58017
KFAT 071953Z 29009KT 10SM FEW070 24/01 A3000 RMK AO2 SLP156 CU OMTNS DSNT N-E-S T02440011
KFAT 071853Z 26007KT 10SM FEW070 23/03 A3002 RMK AO2 SLP161 CU OMTNS DSNT N-E-S T02330028
KFAT 071753Z 32007KT 10SM FEW070 21/04 A3002 RMK AO2 SLP163 CU OMTNS DSNT E T02110039 10217 20144 50000
KFAT 071653Z 32006KT 10SM FEW070 19/06 A3003 RMK AO2 SLP167 CU OMTNS DSNT E T01940061
KFAT 071553Z 29003KT 10SM CLR 17/07 A3003 RMK AO2 SLP165 T01720072
KFAT 071453Z 31004KT 10SM CLR 16/07 A3002 RMK AO2 SLP163 T01560067 51016
KFAT 071353Z 32008KT 10SM CLR 14/07 A3001 RMK AO2 SLP159 T01440072
KFAT 071253Z 32009KT 10SM FEW200 SCT250 14/08 A2999 RMK AO2 SLP152 T01440078